Time;durP1;ratioP1;P1;durP2;ratioP2;P2;SDS_P1;SDS_P2;PMS_P1;PMS_P2;Temp;Humidity;BMP_temperature;BMP_pressure;BME280_temperature;BME280_humidity;BME280_pressure;Samples;Min_cycle;Max_cycle;Signal;HPM_P1;HPM_P2
2022/06/24 00:02:12;;;;;;;4.47;4.07;;;18.50;99.90;;;;;;5049367;28;20437;-50
2022/06/24 00:04:40;;;;;;;4.20;3.90;;;18.40;99.90;;;;;;5048109;28;20488;-47
2022/06/24 00:07:15;;;;;;;4.80;4.30;;;18.30;99.90;;;;;;5050955;28;20485;-48
2022/06/24 00:09:44;;;;;;;4.37;3.77;;;18.30;99.90;;;;;;5050040;28;20455;-51
2022/06/24 00:12:14;;;;;;;4.40;4.07;;;18.40;99.90;;;;;;5051012;28;20412;-50
2022/06/24 00:14:45;;;;;;;7.90;3.97;;;18.30;99.90;;;;;;5049622;28;20510;-54
2022/06/24 00:17:14;;;;;;;4.87;4.47;;;18.30;99.90;;;;;;5049487;28;20608;-53
2022/06/24 00:19:55;;;;;;;4.83;4.53;;;18.30;99.90;;;;;;5049601;28;20429;-47
2022/06/24 00:22:24;;;;;;;4.90;4.00;;;18.30;99.90;;;;;;5048846;28;20418;-48
2022/06/24 00:25:08;;;;;;;3.83;3.63;;;18.20;99.90;;;;;;5049279;28;20427;-47
2022/06/24 00:27:36;;;;;;;9.10;5.10;;;18.20;99.90;;;;;;5049268;28;20614;-49
2022/06/24 00:30:11;;;;;;;4.70;4.40;;;18.20;99.90;;;;;;5049720;28;20707;-47
2022/06/24 00:32:39;;;;;;;4.23;3.90;;;18.00;99.90;;;;;;5047499;28;20450;-47
2022/06/24 00:35:15;;;;;;;4.87;4.40;;;18.00;99.90;;;;;;5031601;28;20529;-54
2022/06/24 00:37:45;;;;;;;5.83;4.50;;;18.10;99.90;;;;;;5039872;28;20727;-51
2022/06/24 00:40:12;;;;;;;4.30;4.00;;;18.00;99.90;;;;;;5041582;28;20426;-48
2022/06/24 00:42:42;;;;;;;4.50;4.10;;;18.00;99.90;;;;;;5051157;28;20408;-47
2022/06/24 00:45:40;;;;;;;4.73;4.33;;;18.00;99.90;;;;;;5049737;28;20419;-51
2022/06/24 00:48:13;;;;;;;5.30;4.80;;;18.00;99.90;;;;;;5046230;28;20417;-47
2022/06/24 00:50:45;;;;;;;4.87;4.50;;;17.90;99.90;;;;;;5046215;28;20428;-47
2022/06/24 00:53:14;;;;;;;4.23;3.93;;;18.00;99.90;;;;;;5049358;28;20439;-51
2022/06/24 00:55:42;;;;;;;4.97;4.57;;;17.90;99.90;;;;;;5046919;28;20558;-46
2022/06/24 00:58:15;;;;;;;5.43;5.03;;;17.90;99.90;;;;;;5041504;28;20438;-49
2022/06/24 01:00:49;;;;;;;8.13;4.70;;;17.90;99.90;;;;;;5056278;28;20669;-48
2022/06/24 01:03:16;;;;;;;4.60;4.20;;;17.90;99.90;;;;;;5046195;28;20591;-50
2022/06/24 01:05:44;;;;;;;6.77;4.70;;;17.80;99.90;;;;;;5056263;28;20802;-48
2022/06/24 01:08:14;;;;;;;4.27;3.87;;;17.70;99.90;;;;;;5045306;28;20438;-47
2022/06/24 01:10:41;;;;;;;4.10;3.80;;;17.70;99.90;;;;;;5051394;28;20524;-48
2022/06/24 01:13:10;;;;;;;5.43;4.90;;;17.70;99.90;;;;;;5053025;28;20409;-48
2022/06/24 01:15:38;;;;;;;5.50;5.10;;;17.50;99.90;;;;;;5052020;28;20511;-48
2022/06/24 01:18:07;;;;;;;5.40;4.80;;;17.40;99.90;;;;;;5053795;28;20419;-52
2022/06/24 01:20:34;;;;;;;5.20;4.80;;;17.30;99.90;;;;;;5051386;28;20431;-49
2022/06/24 01:23:02;;;;;;;4.60;4.30;;;17.40;99.90;;;;;;5053562;28;20415;-48
2022/06/24 01:25:31;;;;;;;4.97;4.57;;;17.40;99.90;;;;;;5050486;28;20469;-52
2022/06/24 01:27:59;;;;;;;5.40;5.00;;;17.40;99.90;;;;;;5052690;28;20402;-48
2022/06/24 01:30:27;;;;;;;5.67;5.17;;;17.30;99.90;;;;;;5050501;28;20411;-49
2022/06/24 01:32:57;;;;;;;5.67;5.20;;;17.40;99.90;;;;;;5052823;28;20607;-52
2022/06/24 01:35:25;;;;;;;5.83;4.00;;;17.20;99.90;;;;;;5050992;28;20437;-49
2022/06/24 01:37:52;;;;;;;5.93;5.43;;;17.20;99.90;;;;;;5052798;28;20428;-52
2022/06/24 01:40:20;;;;;;;5.27;4.87;;;17.20;99.90;;;;;;5052015;28;20469;-54
2022/06/24 01:42:47;;;;;;;5.90;4.90;;;17.20;99.90;;;;;;5034726;28;20496;-52
2022/06/24 01:45:14;;;;;;;5.03;4.57;;;17.10;99.90;;;;;;5052311;28;20461;-48
2022/06/24 01:47:42;;;;;;;5.00;4.60;;;17.20;99.90;;;;;;5053627;28;20514;-51
2022/06/24 01:50:09;;;;;;;5.20;4.20;;;17.10;99.90;;;;;;5053784;28;20435;-48
2022/06/24 01:52:36;;;;;;;5.07;4.57;;;17.20;99.90;;;;;;5052896;28;20416;-54
2022/06/24 01:55:04;;;;;;;6.13;5.47;;;17.10;99.90;;;;;;5047442;28;20601;-47
2022/06/24 01:57:31;;;;;;;5.47;5.07;;;17.00;99.90;;;;;;5049411;28;20495;-54
2022/06/24 02:00:00;;;;;;;5.43;4.50;;;17.00;99.90;;;;;;5053359;28;20672;-55
2022/06/24 02:02:28;;;;;;;8.33;5.00;;;17.00;99.90;;;;;;5051485;28;20419;-50
2022/06/24 02:04:56;;;;;;;5.67;5.17;;;16.90;99.90;;;;;;5052784;28;20510;-47
2022/06/24 02:07:23;;;;;;;5.90;5.43;;;16.90;99.90;;;;;;5052074;28;20668;-52
2022/06/24 02:15:23;;;;;;;5.87;4.70;;;16.90;99.90;;;;;;5054621;28;20498;-50
2022/06/24 02:17:50;;;;;;;4.57;4.27;;;16.90;99.90;;;;;;5048193;28;20609;-49
2022/06/24 02:20:18;;;;;;;4.73;4.20;;;16.80;99.90;;;;;;5056393;28;20452;-51
2022/06/24 02:22:45;;;;;;;4.70;4.40;;;16.80;99.90;;;;;;5047926;28;20726;-48
2022/06/24 02:25:17;;;;;;;7.53;4.60;;;16.60;99.90;;;;;;5055052;28;20494;-53
2022/06/24 02:27:48;;;;;;;6.03;4.83;;;16.70;99.90;;;;;;5047856;28;20453;-48
2022/06/24 02:30:16;;;;;;;4.97;4.40;;;16.60;99.90;;;;;;5048360;28;20472;-51
2022/06/24 02:32:43;;;;;;;6.03;5.43;;;16.60;99.90;;;;;;5054179;28;20415;-50
2022/06/24 02:35:11;;;;;;;5.27;4.87;;;16.60;99.90;;;;;;5048366;28;20674;-49
2022/06/24 02:37:38;;;;;;;4.97;4.57;;;16.60;99.90;;;;;;5055800;28;20426;-46
2022/06/24 02:42:56;;;;;;;5.60;5.10;;;16.60;99.90;;;;;;5036460;28;20429;-48
2022/06/24 02:45:24;;;;;;;5.97;5.50;;;16.60;99.90;;;;;;5049936;28;20599;-48
2022/06/24 02:47:51;;;;;;;4.63;4.23;;;16.50;99.90;;;;;;5051091;28;20450;-47
2022/06/24 02:50:18;;;;;;;5.73;5.00;;;16.50;99.90;;;;;;5051437;28;20428;-53
2022/06/24 02:52:45;;;;;;;5.40;4.90;;;16.60;99.90;;;;;;5051367;28;20403;-49
2022/06/24 02:55:13;;;;;;;5.63;5.03;;;16.60;99.90;;;;;;5051297;28;20452;-49
2022/06/24 02:57:40;;;;;;;5.97;5.57;;;16.50;99.90;;;;;;5048627;28;20813;-50
2022/06/24 03:00:08;;;;;;;6.30;5.60;;;16.50;99.90;;;;;;5051271;28;20424;-52
2022/06/24 03:02:35;;;;;;;5.70;5.30;;;16.70;99.90;;;;;;5049858;28;20448;-54
2022/06/24 03:05:10;;;;;;;5.87;5.07;;;16.60;99.90;;;;;;5050709;28;20619;-51
2022/06/24 03:07:38;;;;;;;7.00;5.77;;;16.60;99.90;;;;;;5049994;28;20456;-51
2022/06/24 03:10:06;;;;;;;5.57;5.07;;;16.70;99.90;;;;;;5051054;28;20437;-49
2022/06/24 03:12:33;;;;;;;6.37;5.60;;;16.60;99.90;;;;;;5048560;28;20643;-47
2022/06/24 03:15:01;;;;;;;6.57;5.30;;;16.60;99.90;;;;;;5051143;28;20666;-50
2022/06/24 03:17:28;;;;;;;7.40;5.20;;;16.60;99.90;;;;;;5049651;28;20451;-46
2022/06/24 03:19:55;;;;;;;5.73;5.23;;;16.70;99.90;;;;;;5044250;28;20623;-47
2022/06/24 03:22:23;;;;;;;4.97;4.40;;;16.70;99.90;;;;;;5049628;28;20432;-48
2022/06/24 03:24:50;;;;;;;5.60;5.20;;;16.90;99.90;;;;;;5050312;28;20769;-49
2022/06/24 03:27:17;;;;;;;7.10;5.40;;;17.10;99.90;;;;;;5050477;28;20476;-53
2022/06/24 03:29:44;;;;;;;8.17;5.20;;;17.30;99.90;;;;;;5047250;28;20515;-49
2022/06/24 03:32:12;;;;;;;5.30;4.90;;;17.60;99.90;;;;;;5052444;28;20862;-47
2022/06/24 03:34:40;;;;;;;4.77;4.37;;;18.30;99.90;;;;;;5047528;28;20430;-47
2022/06/24 03:37:10;;;;;;;10.20;4.93;;;18.80;99.90;;;;;;5051664;28;20906;-52
2022/06/24 03:39:38;;;;;;;5.20;4.70;;;19.10;99.90;;;;;;5044362;28;20449;-49
2022/06/24 03:42:05;;;;;;;6.03;5.43;;;19.60;99.90;;;;;;5038959;28;20747;-47
2022/06/24 03:44:36;;;;;;;4.47;4.17;;;19.90;99.90;;;;;;5046550;28;20444;-49
2022/06/24 03:47:10;;;;;;;5.60;4.90;;;19.90;99.90;;;;;;5046243;28;20507;-53
2022/06/24 03:49:38;;;;;;;5.33;4.80;;;20.00;99.90;;;;;;5042812;28;20404;-52
2022/06/24 03:52:06;;;;;;;10.37;4.87;;;19.80;99.90;;;;;;5049430;28;20734;-48
2022/06/24 03:54:33;;;;;;;4.57;4.10;;;19.70;99.90;;;;;;5045254;28;20416;-49
2022/06/24 03:57:01;;;;;;;7.50;5.90;;;19.60;99.90;;;;;;5043047;28;20423;-47
2022/06/24 03:59:29;;;;;;;7.60;4.77;;;19.50;99.90;;;;;;5047846;28;20475;-51
2022/06/24 04:01:57;;;;;;;8.50;6.43;;;19.40;99.90;;;;;;5044278;28;20709;-50
2022/06/24 04:04:25;;;;;;;5.90;5.47;;;19.20;99.90;;;;;;5049827;28;20477;-50
2022/06/24 04:06:52;;;;;;;6.03;5.33;;;19.10;99.90;;;;;;5042208;28;20645;-52
2022/06/24 04:09:19;;;;;;;6.70;6.10;;;19.10;99.90;;;;;;5049558;28;20404;-52
2022/06/24 04:11:46;;;;;;;6.00;5.40;;;19.00;99.90;;;;;;5037163;28;20408;-50
2022/06/24 04:14:14;;;;;;;5.90;5.20;;;19.00;99.90;;;;;;5043460;28;20677;-46
2022/06/24 04:16:41;;;;;;;6.67;6.00;;;18.90;99.90;;;;;;5047652;28;20456;-51
2022/06/24 04:19:08;;;;;;;9.17;5.50;;;19.00;99.90;;;;;;5045887;28;20434;-48
2022/06/24 04:21:36;;;;;;;6.53;5.90;;;18.90;99.90;;;;;;5049774;28;20444;-53
2022/06/24 04:24:03;;;;;;;6.33;5.33;;;18.90;99.90;;;;;;5040664;28;20420;-49
2022/06/24 04:26:30;;;;;;;5.90;5.10;;;18.90;99.90;;;;;;5050490;28;20481;-49
2022/06/24 04:28:57;;;;;;;5.40;5.00;;;18.80;99.90;;;;;;5044046;28;20477;-47
2022/06/24 04:31:24;;;;;;;6.33;5.73;;;18.70;99.90;;;;;;5046046;28;20411;-48
2022/06/24 04:33:51;;;;;;;5.63;5.03;;;18.70;99.90;;;;;;5049690;28;20512;-50
2022/06/24 04:36:19;;;;;;;5.83;5.17;;;18.70;99.90;;;;;;5051070;28;20455;-47
2022/06/24 04:38:46;;;;;;;7.03;5.20;;;18.80;99.90;;;;;;5041282;28;20625;-47
2022/06/24 04:41:16;;;;;;;6.10;5.50;;;18.90;99.90;;;;;;5045075;28;20404;-51
2022/06/24 04:43:43;;;;;;;6.00;5.43;;;18.90;99.90;;;;;;5049338;28;20425;-47
2022/06/24 04:46:14;;;;;;;6.83;6.23;;;18.90;99.90;;;;;;5053281;28;20441;-48
2022/06/24 04:48:41;;;;;;;6.40;5.80;;;18.80;99.90;;;;;;5044582;28;20431;-48
2022/06/24 04:51:12;;;;;;;6.30;5.70;;;18.80;99.90;;;;;;5050159;28;20718;-49
2022/06/24 04:53:40;;;;;;;6.20;5.60;;;18.90;99.90;;;;;;5049325;28;20470;-48
2022/06/24 04:56:07;;;;;;;6.50;5.90;;;19.10;99.90;;;;;;5045199;28;20435;-48
2022/06/24 04:58:34;;;;;;;5.60;4.70;;;19.20;99.90;;;;;;5053112;28;20432;-51
2022/06/24 05:01:01;;;;;;;9.73;6.20;;;19.30;99.90;;;;;;5035803;28;20413;-47
2022/06/24 05:03:29;;;;;;;6.43;5.87;;;19.30;99.90;;;;;;5052998;28;20606;-51
2022/06/24 05:05:56;;;;;;;9.20;5.00;;;19.40;99.90;;;;;;5045187;28;20433;-52
2022/06/24 05:08:23;;;;;;;6.30;5.17;;;19.70;99.90;;;;;;5053367;28;20888;-50
2022/06/24 05:10:56;;;;;;;5.07;4.50;;;19.70;99.90;;;;;;5043892;28;20563;-49
2022/06/24 05:13:24;;;;;;;6.07;5.57;;;19.80;99.90;;;;;;5048130;28;20501;-47
2022/06/24 05:15:51;;;;;;;8.23;5.40;;;19.90;99.90;;;;;;5050294;28;20429;-48
2022/06/24 05:18:20;;;;;;;7.00;5.53;;;20.00;99.90;;;;;;5039563;28;20615;-53
2022/06/24 05:20:47;;;;;;;5.97;5.00;;;20.20;99.90;;;;;;5041263;28;20412;-49
2022/06/24 05:23:14;;;;;;;5.30;4.90;;;20.40;99.90;;;;;;5038597;28;20812;-49
2022/06/24 05:25:41;;;;;;;7.13;5.37;;;20.60;99.90;;;;;;5054291;28;20503;-48
2022/06/24 05:28:08;;;;;;;7.57;5.30;;;20.70;99.90;;;;;;5039052;28;20483;-52
2022/06/24 05:30:35;;;;;;;7.53;5.40;;;20.90;99.90;;;;;;5049232;28;20443;-51
2022/06/24 05:33:03;;;;;;;7.23;5.30;;;21.00;99.90;;;;;;5045340;28;20418;-50
2022/06/24 05:35:30;;;;;;;5.53;5.00;;;21.20;99.90;;;;;;5047673;28;20686;-45
2022/06/24 05:37:57;;;;;;;5.37;4.93;;;21.10;99.90;;;;;;5048922;28;20756;-46
2022/06/24 05:40:24;;;;;;;12.40;4.97;;;21.30;99.90;;;;;;5038466;28;20619;-50
2022/06/24 05:42:52;;;;;;;5.47;4.03;;;21.50;99.90;;;;;;5048870;28;20505;-52
2022/06/24 05:45:19;;;;;;;5.47;3.90;;;21.70;99.90;;;;;;5050970;28;20427;-45
2022/06/24 05:47:46;;;;;;;8.10;5.57;;;21.80;99.90;;;;;;5040528;28;20516;-52
2022/06/24 05:50:13;;;;;;;6.20;4.63;;;21.90;99.90;;;;;;5052170;28;20436;-50
2022/06/24 05:55:26;;;;;;;6.53;5.10;;;22.10;99.90;;;;;;5051533;28;20458;-49
2022/06/24 05:57:54;;;;;;;5.67;5.03;;;22.20;99.90;;;;;;5038187;28;20530;-48
2022/06/24 06:00:21;;;;;;;5.30;4.80;;;22.20;99.90;;;;;;5047233;28;20735;-48
2022/06/24 06:02:48;;;;;;;5.40;4.70;;;22.30;99.90;;;;;;5039823;28;20807;-47
2022/06/24 06:05:15;;;;;;;6.47;5.87;;;22.50;99.90;;;;;;5047753;28;20629;-49
2022/06/24 06:07:43;;;;;;;9.83;4.90;;;22.60;99.90;;;;;;5043296;28;20485;-49
2022/06/24 06:10:10;;;;;;;4.93;4.17;;;22.80;99.90;;;;;;5048301;28;20774;-48
2022/06/24 06:12:37;;;;;;;4.70;3.63;;;23.00;99.90;;;;;;5043361;28;20749;-50
2022/06/24 06:15:05;;;;;;;4.03;3.70;;;23.20;99.90;;;;;;5049062;28;20464;-48
2022/06/24 06:17:32;;;;;;;5.20;4.10;;;23.30;99.90;;;;;;5043862;28;20433;-46
2022/06/24 06:20:01;;;;;;;7.27;4.63;;;23.50;99.90;;;;;;5043939;28;20423;-53
2022/06/24 06:22:28;;;;;;;4.77;4.37;;;23.80;99.90;;;;;;5045937;28;20415;-48
2022/06/24 06:24:56;;;;;;;4.07;3.77;;;24.20;99.90;;;;;;5043929;28;20451;-48
2022/06/24 06:27:23;;;;;;;3.53;3.23;;;24.80;99.90;;;;;;5047391;28;20473;-53
2022/06/24 06:29:51;;;;;;;5.20;3.80;;;25.20;99.90;;;;;;5041635;28;20757;-48
2022/06/24 06:32:18;;;;;;;4.77;4.17;;;25.40;99.90;;;;;;5051051;28;20439;-50
2022/06/24 06:34:46;;;;;;;7.13;4.93;;;25.60;99.90;;;;;;5039384;28;20458;-51
2022/06/24 06:37:13;;;;;;;6.23;4.30;;;25.20;99.90;;;;;;5047669;28;20490;-50
2022/06/24 06:39:40;;;;;;;3.80;3.60;;;25.20;99.90;;;;;;5042421;28;20798;-49
2022/06/24 06:42:07;;;;;;;3.70;3.33;;;25.20;99.90;;;;;;5042701;28;20443;-52
2022/06/24 06:44:35;;;;;;;4.60;3.63;;;25.20;99.90;;;;;;5048072;28;20464;-49
2022/06/24 06:47:02;;;;;;;3.90;3.60;;;25.40;99.90;;;;;;5052847;28;20475;-49
2022/06/24 06:49:32;;;;;;;4.13;3.83;;;25.70;99.90;;;;;;5048964;28;20491;-51
2022/06/24 06:52:02;;;;;;;7.87;3.57;;;26.50;99.90;;;;;;5055039;28;20492;-51
2022/06/24 06:54:30;;;;;;;3.70;3.40;;;26.80;99.90;;;;;;5047447;28;20488;-50
2022/06/24 06:56:57;;;;;;;4.40;3.50;;;26.80;99.90;;;;;;5050486;28;20485;-50
2022/06/24 06:59:25;;;;;;;4.60;3.50;;;27.20;99.90;;;;;;5049855;28;20440;-50
2022/06/24 07:01:52;;;;;;;8.60;3.00;;;27.60;99.90;;;;;;5050573;28;20443;-54
2022/06/24 07:04:21;;;;;;;5.40;3.80;;;28.10;99.90;;;;;;5049395;28;20434;-49
2022/06/24 07:06:49;;;;;;;12.33;4.20;;;29.50;99.90;;;;;;5037180;28;20424;-53
2022/06/24 07:09:18;;;;;;;7.27;4.43;;;31.10;96.80;;;;;;5051615;28;20443;-49
2022/06/24 07:11:45;;;;;;;7.53;4.07;;;31.40;94.20;;;;;;5051292;28;20476;-54
2022/06/24 07:14:13;;;;;;;3.57;3.20;;;31.00;93.40;;;;;;5050122;28;20435;-53
2022/06/24 07:16:40;;;;;;;12.63;3.70;;;31.00;92.50;;;;;;5050040;28;20444;-55
2022/06/24 07:19:07;;;;;;;5.33;3.23;;;32.20;90.30;;;;;;5051235;28;20462;-53
2022/06/24 07:21:34;;;;;;;2.93;2.73;;;33.50;85.20;;;;;;5049090;28;20434;-54
2022/06/24 07:24:02;;;;;;;7.23;2.87;;;34.30;79.30;;;;;;5051198;28;20805;-52
2022/06/24 07:26:29;;;;;;;3.80;2.87;;;33.90;76.00;;;;;;5050644;28;20453;-50
2022/06/24 07:28:56;;;;;;;2.53;2.37;;;33.60;74.70;;;;;;5050988;28;20479;-52
2022/06/24 07:31:23;;;;;;;4.33;2.53;;;33.80;73.50;;;;;;5048896;28;20492;-51
2022/06/24 07:33:51;;;;;;;3.57;2.80;;;34.40;72.00;;;;;;5050679;28;20447;-50
2022/06/24 07:36:18;;;;;;;6.87;3.20;;;35.10;68.20;;;;;;5049947;28;20461;-49
2022/06/24 07:38:45;;;;;;;2.67;2.47;;;34.60;68.20;;;;;;5050907;28;20440;-50
2022/06/24 07:41:13;;;;;;;3.37;3.10;;;35.10;65.70;;;;;;5050793;28;20441;-54
2022/06/24 07:43:40;;;;;;;2.80;2.60;;;35.10;65.40;;;;;;5047061;28;20445;-50
2022/06/24 07:46:08;;;;;;;2.67;2.47;;;35.50;63.10;;;;;;5053447;28;20460;-54
2022/06/24 07:48:36;;;;;;;3.43;3.13;;;35.40;63.30;;;;;;5048343;28;20737;-49
2022/06/24 07:51:16;;;;;;;7.73;3.07;;;36.00;62.00;;;;;;5047061;28;20620;-54
2022/06/24 07:53:44;;;;;;;2.90;2.60;;;36.90;59.60;;;;;;5046410;28;20456;-48
2022/06/24 07:59:04;;;;;;;4.90;2.73;;;34.90;59.30;;;;;;5042799;28;20444;-52
2022/06/24 08:01:35;;;;;;;4.70;2.50;;;35.40;58.90;;;;;;5049213;28;20438;-47
2022/06/24 08:04:07;;;;;;;13.27;3.50;;;35.60;58.40;;;;;;5052047;28;20441;-49
2022/06/24 08:06:37;;;;;;;2.63;2.43;;;35.60;58.80;;;;;;5048445;28;20465;-54
2022/06/24 08:09:05;;;;;;;2.53;2.33;;;35.80;58.00;;;;;;5055203;28;20480;-53
2022/06/24 08:11:33;;;;;;;2.80;2.60;;;37.10;56.60;;;;;;5051921;28;20488;-48
2022/06/24 08:14:00;;;;;;;6.63;3.20;;;37.10;56.20;;;;;;5055285;28;20610;-52
2022/06/24 08:16:28;;;;;;;3.53;2.90;;;36.80;56.70;;;;;;5052550;28;20454;-48
2022/06/24 08:18:56;;;;;;;10.50;3.10;;;37.30;56.60;;;;;;5054360;28;20436;-51
2022/06/24 08:21:23;;;;;;;3.53;2.80;;;36.10;57.60;;;;;;5052957;28;20433;-52
2022/06/24 08:23:51;;;;;;;2.73;2.53;;;36.90;57.00;;;;;;5054501;28;20528;-51
2022/06/24 08:26:18;;;;;;;5.23;2.83;;;37.20;56.60;;;;;;5053513;28;20718;-53
2022/06/24 08:28:45;;;;;;;2.70;2.50;;;37.50;54.70;;;;;;5054108;28;20476;-48
2022/06/24 08:31:13;;;;;;;2.70;2.50;;;36.70;55.60;;;;;;5053213;28;20432;-50
2022/06/24 08:33:40;;;;;;;2.47;2.27;;;36.50;56.00;;;;;;5053376;28;20444;-55
2022/06/24 08:36:11;;;;;;;2.90;2.60;;;37.70;54.20;;;;;;5054122;28;20456;-51
2022/06/24 08:38:39;;;;;;;2.47;2.17;;;37.00;54.80;;;;;;5043954;28;20435;-53
2022/06/24 08:41:06;;;;;;;8.93;3.50;;;36.60;55.90;;;;;;5025657;28;20442;-48
2022/06/24 08:43:35;;;;;;;8.10;4.07;;;36.80;55.10;;;;;;5021734;28;20741;-48
2022/06/24 08:46:04;;;;;;;3.27;2.93;;;36.30;55.60;;;;;;5022048;28;20701;-51
2022/06/24 08:48:37;;;;;;;5.70;3.30;;;36.40;55.80;;;;;;5025477;28;20482;-51
2022/06/24 08:51:06;;;;;;;20.20;4.80;;;37.40;54.60;;;;;;5031411;28;20461;-53
2022/06/24 08:53:35;;;;;;;2.40;2.30;;;37.20;53.80;;;;;;5035035;28;20438;-51
2022/06/24 08:56:03;;;;;;;2.97;2.77;;;36.70;54.70;;;;;;5028735;28;20656;-52
2022/06/24 08:58:30;;;;;;;4.03;2.67;;;36.40;54.40;;;;;;5034265;28;20446;-54
2022/06/24 09:00:57;;;;;;;2.20;2.10;;;36.00;54.50;;;;;;5031657;28;20447;-47
2022/06/24 09:03:24;;;;;;;4.57;2.70;;;36.00;55.30;;;;;;5032347;28;20494;-53
2022/06/24 09:05:58;;;;;;;5.00;2.27;;;36.90;54.40;;;;;;5033213;28;20476;-49
2022/06/24 09:08:32;;;;;;;2.93;2.70;;;37.60;53.60;;;;;;5048371;28;20487;-50
2022/06/24 09:11:08;;;;;;;3.50;3.20;;;37.20;53.10;;;;;;5046850;28;20808;-53
2022/06/24 09:13:47;;;;;;;3.20;2.90;;;36.00;54.30;;;;;;5045701;28;20464;-53
2022/06/24 09:16:20;;;;;;;2.70;2.50;;;35.80;54.80;;;;;;5052533;28;21196;-47
2022/06/24 09:18:56;;;;;;;2.43;2.10;;;35.50;55.50;;;;;;5035898;28;20440;-50
2022/06/24 09:21:29;;;;;;;2.57;2.37;;;36.70;53.40;;;;;;5051284;28;20441;-48
2022/06/24 09:23:58;;;;;;;4.20;2.97;;;36.50;53.60;;;;;;5047181;28;20437;-51
2022/06/24 09:26:43;;;;;;;3.63;2.67;;;37.10;53.80;;;;;;5053298;28;20712;-50
2022/06/24 09:29:15;;;;;;;6.80;2.90;;;38.80;51.50;;;;;;5047136;28;20832;-47
2022/06/24 09:31:43;;;;;;;2.87;2.50;;;38.00;51.90;;;;;;5049077;28;20429;-50
2022/06/24 09:34:15;;;;;;;3.07;2.77;;;37.20;52.90;;;;;;5049572;28;20779;-50
2022/06/24 09:36:45;;;;;;;3.07;2.03;;;37.00;53.90;;;;;;5044342;28;20479;-52
2022/06/24 09:39:14;;;;;;;3.03;2.83;;;35.90;53.70;;;;;;5051989;28;20429;-47
2022/06/24 09:41:53;;;;;;;3.50;2.70;;;33.00;58.40;;;;;;5038173;28;20443;-51
2022/06/24 09:44:24;;;;;;;2.87;2.43;;;32.10;59.50;;;;;;5046187;28;20716;-49
2022/06/24 09:47:03;;;;;;;2.67;2.47;;;31.30;60.10;;;;;;5055214;28;20461;-54
2022/06/24 09:49:30;;;;;;;3.60;3.10;;;30.60;61.10;;;;;;5047498;28;20488;-52
2022/06/24 09:51:58;;;;;;;4.03;3.00;;;30.40;62.00;;;;;;5055500;28;20448;-48
2022/06/24 09:54:27;;;;;;;2.90;2.70;;;30.10;62.40;;;;;;5049255;28;20787;-49
2022/06/24 09:56:58;;;;;;;3.10;2.90;;;29.70;63.20;;;;;;5050891;28;20428;-51
2022/06/24 10:02:18;;;;;;;3.63;3.20;;;29.40;66.20;;;;;;5052102;28;20438;-51
2022/06/24 10:04:51;;;;;;;6.60;3.57;;;29.70;66.90;;;;;;5040172;28;20811;-50
2022/06/24 10:07:23;;;;;;;4.27;2.83;;;29.70;67.60;;;;;;5051270;28;20439;-49
2022/06/24 10:10:05;;;;;;;3.70;3.40;;;29.50;66.80;;;;;;5044702;28;20437;-51
2022/06/24 10:12:37;;;;;;;7.73;2.77;;;29.40;68.30;;;;;;5050236;28;20615;-52
2022/06/24 10:15:06;;;;;;;10.30;2.80;;;29.20;68.90;;;;;;5052388;28;20791;-49
2022/06/24 10:17:34;;;;;;;5.20;3.20;;;29.30;69.50;;;;;;5050254;28;20790;-49
2022/06/24 10:20:04;;;;;;;3.13;2.80;;;29.20;69.80;;;;;;5053651;28;20440;-47
2022/06/24 10:22:38;;;;;;;3.00;2.70;;;29.10;69.60;;;;;;5050160;28;20431;-45
2022/06/24 10:25:06;;;;;;;4.53;3.70;;;29.00;68.50;;;;;;5049336;28;20460;-46
2022/06/24 10:27:58;;;;;;;2.33;2.13;;;28.90;68.60;;;;;;5050449;28;20604;-51
2022/06/24 10:30:56;;;;;;;5.47;3.00;;;29.00;68.90;;;;;;5046630;28;20430;-52
2022/06/24 10:33:27;;;;;;;2.67;2.47;;;28.80;68.70;;;;;;5049555;28;20449;-48
2022/06/24 10:36:04;;;;;;;2.80;2.60;;;28.90;69.80;;;;;;5051440;28;20452;-50
2022/06/24 10:38:42;;;;;;;2.43;2.23;;;29.20;68.90;;;;;;5050220;28;20800;-50
2022/06/24 10:41:11;;;;;;;2.80;2.60;;;29.10;69.40;;;;;;5052120;28;20436;-51
2022/06/24 10:43:43;;;;;;;4.70;3.50;;;29.20;69.20;;;;;;5033286;28;20427;-48
2022/06/24 10:46:13;;;;;;;3.27;2.80;;;29.30;68.60;;;;;;5024872;28;20431;-48
2022/06/24 10:48:43;;;;;;;3.73;3.10;;;29.10;68.00;;;;;;5028169;28;20502;-47
2022/06/24 10:51:15;;;;;;;2.83;2.63;;;29.00;68.70;;;;;;5025142;28;21028;-50
2022/06/24 10:54:09;;;;;;;4.23;3.00;;;29.20;69.30;;;;;;5040280;28;20440;-49
2022/06/24 10:56:46;;;;;;;2.67;2.47;;;29.40;69.60;;;;;;5046942;28;20457;-49
2022/06/24 10:59:17;;;;;;;3.90;3.40;;;29.70;67.80;;;;;;5027203;28;20438;-48
2022/06/24 11:01:47;;;;;;;2.63;2.47;;;29.70;67.40;;;;;;5030538;28;20491;-52
2022/06/24 11:04:27;;;;;;;2.70;2.53;;;29.10;68.20;;;;;;5024931;28;20435;-51
2022/06/24 11:07:13;;;;;;;3.80;2.93;;;29.00;68.30;;;;;;5038746;28;20472;-50
2022/06/24 11:09:40;;;;;;;5.13;3.23;;;29.30;65.20;;;;;;5051455;28;20517;-53
2022/06/24 11:12:37;;;;;;;3.63;2.27;;;29.40;65.90;;;;;;5048663;28;20454;-54
2022/06/24 11:15:05;;;;;;;2.70;2.50;;;29.50;67.50;;;;;;5034202;28;20453;-52
2022/06/24 11:17:41;;;;;;;3.13;2.90;;;29.20;67.90;;;;;;5045514;28;20448;-53
2022/06/24 11:20:13;;;;;;;2.50;2.00;;;29.00;68.60;;;;;;5030410;28;20439;-47
2022/06/24 11:22:47;;;;;;;3.20;3.00;;;29.00;68.10;;;;;;5032409;28;20733;-50
2022/06/24 11:25:17;;;;;;;2.70;2.50;;;29.10;67.80;;;;;;5027211;28;20462;-48
2022/06/24 11:27:44;;;;;;;4.43;3.07;;;29.10;68.00;;;;;;5052443;28;20437;-50
2022/06/24 11:30:12;;;;;;;3.40;2.77;;;29.30;69.20;;;;;;5041993;28;20846;-52
2022/06/24 11:33:03;;;;;;;2.83;2.50;;;29.20;68.20;;;;;;5045832;28;20428;-48
2022/06/24 11:35:30;;;;;;;3.07;2.77;;;29.50;67.50;;;;;;5042565;28;20445;-48
2022/06/24 11:38:05;;;;;;;2.77;2.67;;;29.60;67.30;;;;;;5049368;28;20440;-47
2022/06/24 11:40:33;;;;;;;3.53;3.23;;;29.60;66.90;;;;;;5047147;28;20771;-51
2022/06/24 11:43:13;;;;;;;3.63;2.73;;;29.40;67.80;;;;;;5037541;28;20433;-49
2022/06/24 11:45:48;;;;;;;2.80;2.60;;;29.30;68.60;;;;;;5043188;28;20446;-49
2022/06/24 11:48:22;;;;;;;2.93;2.73;;;29.50;69.30;;;;;;5033270;28;20448;-50
2022/06/24 11:50:51;;;;;;;3.23;2.87;;;29.90;67.50;;;;;;5028928;28;20792;-48
2022/06/24 11:53:24;;;;;;;2.10;2.00;;;30.00;68.10;;;;;;5037237;28;20431;-51
2022/06/24 11:55:53;;;;;;;2.37;2.20;;;29.90;67.10;;;;;;5020349;28;20767;-49
2022/06/24 11:58:22;;;;;;;4.70;3.13;;;29.70;66.90;;;;;;5030041;28;20440;-49
2022/06/24 12:00:53;;;;;;;5.27;2.77;;;29.60;67.80;;;;;;5027574;28;20677;-49
2022/06/24 12:03:23;;;;;;;2.30;2.10;;;29.60;68.40;;;;;;5037303;28;20434;-49
2022/06/24 12:05:51;;;;;;;4.67;3.13;;;29.60;68.00;;;;;;5032803;28;20649;-49
2022/06/24 12:08:19;;;;;;;3.03;2.83;;;29.50;67.20;;;;;;5032656;28;20489;-51
2022/06/24 12:10:53;;;;;;;4.67;2.93;;;29.50;67.90;;;;;;5028445;28;20437;-50
2022/06/24 12:13:32;;;;;;;2.67;2.47;;;29.40;67.00;;;;;;5021816;28;20409;-49
2022/06/24 12:16:00;;;;;;;5.53;3.07;;;29.50;67.90;;;;;;5035271;28;20791;-50
2022/06/24 12:18:29;;;;;;;5.73;3.20;;;29.60;67.60;;;;;;5039935;28;20513;-50
2022/06/24 12:21:04;;;;;;;2.80;2.60;;;29.50;67.70;;;;;;5043194;28;20498;-53
2022/06/24 12:23:35;;;;;;;3.80;2.40;;;29.80;67.50;;;;;;5035224;28;20629;-47
2022/06/24 12:26:23;;;;;;;3.50;2.40;;;30.10;66.30;;;;;;5039585;28;20597;-52
2022/06/24 12:29:04;;;;;;;2.17;2.07;;;30.30;65.20;;;;;;5032335;28;20481;-49
2022/06/24 12:31:34;;;;;;;2.40;2.20;;;30.30;65.80;;;;;;5039330;28;20831;-50
2022/06/24 12:34:03;;;;;;;2.37;2.27;;;30.30;66.10;;;;;;5035580;28;20780;-51
2022/06/24 12:36:41;;;;;;;2.00;1.90;;;30.30;65.00;;;;;;5032674;28;20652;-51
2022/06/24 12:39:10;;;;;;;2.57;2.37;;;30.50;65.20;;;;;;5041117;28;20439;-53
2022/06/24 12:41:45;;;;;;;4.10;2.17;;;30.40;65.70;;;;;;5047985;28;20440;-49
2022/06/24 12:44:14;;;;;;;2.80;2.60;;;30.50;64.70;;;;;;5041079;28;20445;-48
2022/06/24 12:52:33;;;;;;;2.63;2.27;;;30.80;64.20;;;;;;5048010;28;20488;-50
2022/06/24 12:55:01;;;;;;;3.30;2.87;;;30.50;65.00;;;;;;5050221;28;20472;-53
2022/06/24 12:57:29;;;;;;;2.90;2.70;;;30.40;65.90;;;;;;5038541;28;20474;-53
2022/06/24 12:59:56;;;;;;;5.87;2.47;;;30.60;65.40;;;;;;5033210;28;20624;-50
2022/06/24 13:02:24;;;;;;;2.43;2.00;;;30.60;63.30;;;;;;5027778;28;20435;-48
2022/06/24 13:04:51;;;;;;;2.40;2.23;;;30.30;64.00;;;;;;5047747;28;20461;-50
2022/06/24 13:07:25;;;;;;;3.00;2.80;;;30.30;65.20;;;;;;5032811;28;20436;-49
2022/06/24 13:09:53;;;;;;;2.50;2.37;;;30.40;64.70;;;;;;5050182;28;20827;-48
2022/06/24 13:12:20;;;;;;;4.40;2.70;;;30.40;65.00;;;;;;5046272;28;20775;-52
2022/06/24 13:14:47;;;;;;;2.33;2.20;;;30.30;65.00;;;;;;5040911;28;20643;-48
2022/06/24 13:17:14;;;;;;;4.37;3.47;;;30.10;65.70;;;;;;5048586;28;20433;-49
2022/06/24 13:19:42;;;;;;;5.37;3.03;;;30.00;66.30;;;;;;5026944;28;20450;-51
2022/06/24 13:22:09;;;;;;;2.43;2.23;;;30.00;66.70;;;;;;5043950;28;20445;-50